Información del aeropuerto LEJR

Información de pista
Pista 02 Longitud 7546 ft Anchura 148 ft
Elevación 68 ft Umbral 0 ft Rumbo 21
Pista 20 Longitud 7546 ft Anchura 148 ft
Elevación 93 ft Umbral 0 ft Rumbo 201
Frecuencias del aeropuerto
Tipo APP Nombre APP Frecuencia 128.5 MHZ
Tipo GND Nombre GND Frecuencia 121.6 MHZ
Tipo TWR Nombre TWR Frecuencia 118.55 MHZ
Radioayudas del aeropuerto
Tipo NDB Nombre Jerez Frecuencia 433 KHZ
Tipo VOR-DME Nombre Jerez Frecuencia 113000 KHZ
Información meteorológica del aeropuerto y NOTAM
ADDS - METARS form results

(0240 UTC 23 January 2022)
Data provider http://aviationweather.gov/metar/data/
 
METAR text: LEJR 230230Z AUTO 12004KT 100V160 CAVOK 05/02 Q1022
Conditions at: LEJR (JEREZ (CIV/MIL) , ES) observed 0230 UTC 23 January 2022
Temperature: 5.0°C (41°F)
Dewpoint: 2.0°C (36°F) [RH = 81%]
Pressure (altimeter): 30.18 inches Hg (1022.0 mb)
Winds: from the ESE (120 degrees) at 5 MPH (4 knots; 2.1 m/s)
Visibility: 6 or more miles (10+ km)
Ceiling: ceiling and visibility are OK
Clouds: unknown
Weather: no significant weather observed at this time

METAR text: LEJR 230200Z AUTO VRB02KT CAVOK 04/02 Q1022
Conditions at: LEJR (JEREZ (CIV/MIL) , ES) observed 0200 UTC 23 January 2022
Temperature: 4.0°C (39°F)
Dewpoint: 2.0°C (36°F) [RH = 87%]
Pressure (altimeter): 30.18 inches Hg (1022.0 mb)
Winds: variable direction winds at 2 MPH (2 knots; 1.0 m/s)
Visibility: 6 or more miles (10+ km)
Ceiling: ceiling and visibility are OK
Clouds: unknown
Weather: no significant weather observed at this time

Forecast for: LEJR (JEREZ (CIV/MIL) , ES)
Text: TAF LEJR 230200Z 2303/2403 VRB02KT CAVOK TX19/2315Z TN05/2307Z
Forecast period: 0300 to 1300 UTC 23 January 2022
Forecast type: FROM: standard forecast or significant change
Winds: variable direction winds at 2 MPH (2 knots; 1.0 m/s)
Visibility: 6 or more miles (10+ km)
Ceiling: unknown
Clouds: missing
Weather: no significant weather forecast for this period
Text: BECMG 2313/2315 09010KT
Forecast period: 1300 UTC 23 January 2022 to 0300 UTC 24 January 2022
Forecast type: BECOMING: Conditions expected to become as follows by 1500 UTC 23 January 2022
Winds: from the E (90 degrees) at 12 MPH (10 knots; 5.1 m/s)
Visibility: 6 or more miles (10+ km)
Ceiling: unknown
Clouds: missing
Weather: no significant weather forecast for this period